createdAt,value
2022-08-11T00:01:18.805Z,21.70
2022-08-11T00:03:52.305Z,21.70
2022-08-11T00:06:30.997Z,21.70
2022-08-11T00:09:02.202Z,21.60
2022-08-11T00:11:37.494Z,21.60
2022-08-11T00:14:17.004Z,21.60
2022-08-11T00:16:56.830Z,21.50
2022-08-11T00:20:12.137Z,21.50
2022-08-11T00:22:24.779Z,21.40
2022-08-11T00:24:57.343Z,21.40
2022-08-11T00:27:34.679Z,21.30
2022-08-11T00:30:05.626Z,21.30
2022-08-11T00:32:35.792Z,21.30
2022-08-11T00:35:51.906Z,21.20
2022-08-11T00:38:00.919Z,21.10
2022-08-11T00:40:46.590Z,20.90
2022-08-11T00:43:24.050Z,20.90
2022-08-11T00:46:20.624Z,20.80
2022-08-11T00:49:07.237Z,20.80
2022-08-11T00:52:04.217Z,20.80
2022-08-11T00:55:27.222Z,20.80
2022-08-11T00:59:35.497Z,20.80
2022-08-11T01:02:18.776Z,20.80
2022-08-11T01:05:18.959Z,20.90
2022-08-11T01:08:24.314Z,20.90
2022-08-11T01:11:18.689Z,21.00
2022-08-11T01:14:34.180Z,21.00
2022-08-11T01:17:41.988Z,21.00
2022-08-11T01:20:46.043Z,21.10
2022-08-11T01:24:12.689Z,21.00
2022-08-11T01:27:36.816Z,20.90
2022-08-11T01:30:27.759Z,20.90
2022-08-11T01:34:14.434Z,20.90
2022-08-11T01:37:49.563Z,20.80
2022-08-11T01:41:02.818Z,20.60
2022-08-11T01:44:31.832Z,20.50
2022-08-11T01:47:52.500Z,20.40
2022-08-11T01:50:41.633Z,20.40
2022-08-11T01:53:28.154Z,20.40
2022-08-11T01:56:12.198Z,20.40
2022-08-11T01:58:49.427Z,20.20
2022-08-11T02:01:38.536Z,20.20
2022-08-11T02:04:26.351Z,20.20
2022-08-11T02:07:08.928Z,20.10
2022-08-11T02:10:35.343Z,20.10
2022-08-11T02:13:16.005Z,19.80
2022-08-11T02:16:09.452Z,19.70
2022-08-11T02:19:00.632Z,19.80
2022-08-11T02:22:15.377Z,19.80
2022-08-11T02:24:55.595Z,19.90
2022-08-11T02:27:31.733Z,19.80
2022-08-11T02:30:08.412Z,19.70
2022-08-11T02:33:05.161Z,19.70
2022-08-11T02:35:45.650Z,19.70
2022-08-11T02:38:26.648Z,19.80
2022-08-11T02:41:29.432Z,19.90
2022-08-11T02:44:17.048Z,19.80
2022-08-11T02:47:00.344Z,19.80
2022-08-11T02:50:02.697Z,19.80
2022-08-11T02:52:46.340Z,19.70
2022-08-11T02:55:56.644Z,19.70
2022-08-11T02:58:33.191Z,19.60
2022-08-11T03:01:14.714Z,19.60
2022-08-11T03:03:53.933Z,19.50
2022-08-11T03:06:36.704Z,19.40
2022-08-11T03:09:15.090Z,19.40
2022-08-11T03:12:19.260Z,19.40
2022-08-11T03:15:15.450Z,19.40
2022-08-11T03:18:03.264Z,19.40
2022-08-11T03:20:44.136Z,19.40
2022-08-11T03:23:26.035Z,19.30
2022-08-11T03:26:16.649Z,19.40
2022-08-11T03:29:06.046Z,19.10
2022-08-11T03:31:47.714Z,19.10
2022-08-11T03:34:22.349Z,19.10
2022-08-11T03:37:51.930Z,19.10
2022-08-11T03:41:06.298Z,19.10
2022-08-11T03:44:08.189Z,19.10
2022-08-11T03:47:01.551Z,19.10
2022-08-11T03:49:46.550Z,19.10
2022-08-11T03:52:29.026Z,19.00
2022-08-11T03:55:21.893Z,19.00
2022-08-11T03:58:36.883Z,18.90
2022-08-11T04:01:55.774Z,18.90
2022-08-11T04:05:00.710Z,18.90
2022-08-11T04:08:21.448Z,18.90
2022-08-11T04:11:19.033Z,18.80
2022-08-11T04:14:59.129Z,18.80
2022-08-11T04:18:11.147Z,18.80
2022-08-11T04:21:09.286Z,18.70
2022-08-11T04:24:50.165Z,18.70
2022-08-11T04:27:53.636Z,18.60
2022-08-11T04:30:40.581Z,18.60
2022-08-11T04:34:08.041Z,18.60
2022-08-11T04:37:09.873Z,18.60
2022-08-11T04:39:56.098Z,18.60
2022-08-11T04:43:33.003Z,18.50
2022-08-11T04:46:50.544Z,18.50
2022-08-11T04:50:25.288Z,18.50
2022-08-11T04:53:40.835Z,18.50
2022-08-11T04:56:34.084Z,18.50
2022-08-11T05:00:01.242Z,18.50
2022-08-11T05:03:32.830Z,18.60
2022-08-11T05:06:41.055Z,18.90
2022-08-11T05:09:28.252Z,19.30
2022-08-11T05:12:37.995Z,20.00
2022-08-11T05:15:31.291Z,20.50
2022-08-11T05:18:39.457Z,20.90
2022-08-11T05:21:29.553Z,21.20
2022-08-11T05:24:29.865Z,21.30
2022-08-11T05:27:22.208Z,21.50
2022-08-11T05:30:19.247Z,21.70
2022-08-11T05:33:16.038Z,22.20
2022-08-11T05:36:01.779Z,22.70
2022-08-11T05:38:54.904Z,23.20
2022-08-11T05:41:44.630Z,23.70
2022-08-11T05:44:39.356Z,24.10
2022-08-11T05:47:27.522Z,24.70
2022-08-11T05:50:15.273Z,25.00
2022-08-11T05:53:05.203Z,25.40
2022-08-11T05:56:03.296Z,25.70
2022-08-11T05:58:42.756Z,26.00
2022-08-11T06:01:15.805Z,26.20
2022-08-11T06:04:04.227Z,26.40
2022-08-11T06:06:33.847Z,26.50
2022-08-11T06:09:03.869Z,26.60
2022-08-11T06:11:43.263Z,26.70
2022-08-11T06:14:16.638Z,26.80
2022-08-11T06:16:51.074Z,26.90
2022-08-11T06:19:24.838Z,27.00
2022-08-11T06:21:54.764Z,27.10
2022-08-11T06:24:24.396Z,27.10
2022-08-11T06:27:11.800Z,27.10
2022-08-11T06:29:54.728Z,27.10
2022-08-11T06:32:32.888Z,27.10
2022-08-11T06:35:19.043Z,27.10
2022-08-11T06:38:04.405Z,26.90
2022-08-11T06:41:09.491Z,26.80
2022-08-11T06:43:56.017Z,26.60
2022-08-11T06:46:33.110Z,26.70
2022-08-11T06:49:04.075Z,26.60
2022-08-11T06:51:34.517Z,26.60
2022-08-11T06:54:07.481Z,26.70
2022-08-11T06:57:26.230Z,26.60
2022-08-11T07:00:06.203Z,26.70
2022-08-11T07:02:46.412Z,26.80
2022-08-11T07:05:24.749Z,26.80
2022-08-11T07:08:56.066Z,26.90
2022-08-11T07:12:26.663Z,26.80
2022-08-11T07:15:15.449Z,26.80
2022-08-11T07:18:12.018Z,26.70
2022-08-11T07:21:02.177Z,26.90
2022-08-11T07:23:54.178Z,27.00
2022-08-11T07:26:46.565Z,27.00
2022-08-11T07:29:17.293Z,26.90
2022-08-11T07:31:51.992Z,27.00
2022-08-11T07:34:28.051Z,27.10
2022-08-11T07:36:59.187Z,27.10
2022-08-11T07:39:33.036Z,26.90
2022-08-11T07:42:08.143Z,26.90
2022-08-11T07:44:58.697Z,26.80
2022-08-11T07:47:47.540Z,26.40
2022-08-11T07:50:36.201Z,26.30
2022-08-11T07:53:06.311Z,26.20
2022-08-11T07:55:49.076Z,26.20
2022-08-11T07:58:45.575Z,26.20
2022-08-11T08:01:42.508Z,26.20
2022-08-11T08:04:33.251Z,26.10
2022-08-11T08:07:23.556Z,26.00
2022-08-11T08:10:14.069Z,26.00
2022-08-11T08:13:03.184Z,26.00
2022-08-11T08:15:50.426Z,26.10
2022-08-11T08:18:26.046Z,26.20
2022-08-11T08:21:11.860Z,26.40
2022-08-11T08:23:46.694Z,26.40
2022-08-11T08:26:35.283Z,26.40
2022-08-11T08:29:25.761Z,26.30
2022-08-11T08:31:56.573Z,26.10
2022-08-11T08:34:26.673Z,26.10
2022-08-11T08:36:56.760Z,26.20
2022-08-11T08:39:27.396Z,26.20
2022-08-11T08:42:00.182Z,26.40
2022-08-11T08:44:40.850Z,26.40
2022-08-11T08:47:15.494Z,26.40
2022-08-11T08:50:16.377Z,26.50
2022-08-11T08:52:53.809Z,26.60
2022-08-11T08:55:24.722Z,26.60
2022-08-11T08:57:56.258Z,26.70
2022-08-11T09:00:26.110Z,26.80
2022-08-11T09:02:55.335Z,26.80
2022-08-11T09:05:27.374Z,26.90
2022-08-11T09:07:58.282Z,26.90
2022-08-11T09:10:31.447Z,26.90
2022-08-11T09:13:02.701Z,26.80
2022-08-11T09:15:35.017Z,26.70
2022-08-11T09:18:06.045Z,26.80
2022-08-11T09:20:38.666Z,26.80
2022-08-11T09:24:08.789Z,26.80
2022-08-11T09:26:35.806Z,26.90
2022-08-11T09:29:05.737Z,27.00
2022-08-11T09:31:39.725Z,27.10
2022-08-11T09:34:12.046Z,27.20
2022-08-11T09:37:00.621Z,27.30
2022-08-11T09:39:49.726Z,27.40
2022-08-11T09:42:23.945Z,27.50
2022-08-11T09:44:53.370Z,27.50
2022-08-11T09:47:29.635Z,27.70
2022-08-11T09:50:02.227Z,27.70
2022-08-11T09:52:52.207Z,27.80
2022-08-11T09:55:27.622Z,27.60
2022-08-11T09:58:41.670Z,27.50
2022-08-11T10:01:07.878Z,27.50
2022-08-11T10:03:42.340Z,27.50
2022-08-11T10:06:33.218Z,27.60
2022-08-11T10:09:07.094Z,27.70
2022-08-11T10:11:37.877Z,27.60
2022-08-11T10:14:32.882Z,27.70
2022-08-11T10:17:08.114Z,27.70
2022-08-11T10:19:38.788Z,27.80
2022-08-11T10:22:27.611Z,28.10
2022-08-11T10:25:20.198Z,28.30
2022-08-11T10:28:28.915Z,28.30
2022-08-11T10:31:05.167Z,28.40
2022-08-11T10:33:59.506Z,28.50
2022-08-11T10:36:30.253Z,28.50
2022-08-11T10:39:01.851Z,28.70
2022-08-11T10:42:06.517Z,28.50
2022-08-11T10:44:42.093Z,28.50
2022-08-11T10:47:33.530Z,28.50
2022-08-11T10:50:21.484Z,28.60
2022-08-11T10:53:10.388Z,28.60
2022-08-11T10:56:02.492Z,28.60
2022-08-11T10:58:51.532Z,28.80
2022-08-11T11:01:26.500Z,28.80
2022-08-11T11:04:02.977Z,28.80
2022-08-11T11:06:44.898Z,29.00
2022-08-11T11:09:22.268Z,28.90
2022-08-11T11:12:13.423Z,28.80
2022-08-11T11:15:02.295Z,28.80
2022-08-11T11:17:56.198Z,28.80
2022-08-11T11:20:36.195Z,28.90
2022-08-11T11:23:16.642Z,28.70
2022-08-11T11:26:27.480Z,28.80
2022-08-11T11:29:41.412Z,29.00
2022-08-11T11:32:25.531Z,28.90
2022-08-11T11:35:37.630Z,29.00
2022-08-11T11:38:13.765Z,29.20
2022-08-11T11:41:04.967Z,29.30
2022-08-11T11:43:37.701Z,29.30
2022-08-11T11:46:10.749Z,29.30
2022-08-11T11:48:40.365Z,29.30
2022-08-11T11:51:13.961Z,29.20
2022-08-11T11:53:45.119Z,29.30
2022-08-11T11:56:15.614Z,29.40
2022-08-11T11:59:03.008Z,29.40
2022-08-11T12:01:34.383Z,29.30
2022-08-11T12:04:06.721Z,29.40
2022-08-11T12:06:38.234Z,29.50
2022-08-11T12:09:08.089Z,29.50
2022-08-11T12:11:55.013Z,29.50
2022-08-11T12:14:27.626Z,29.50
2022-08-11T12:16:58.660Z,29.40
2022-08-11T12:19:35.937Z,29.30
2022-08-11T12:22:24.658Z,29.40
2022-08-11T12:25:11.296Z,29.40
2022-08-11T12:27:42.145Z,29.60
2022-08-11T12:30:12.862Z,29.80
2022-08-11T12:32:44.104Z,29.80
2022-08-11T12:35:16.995Z,29.50
2022-08-11T12:38:02.580Z,29.50
2022-08-11T12:44:05.984Z,29.60
2022-08-11T12:46:38.114Z,29.70
2022-08-11T12:49:31.883Z,29.90
2022-08-11T12:52:14.509Z,30.00
2022-08-11T12:54:58.889Z,30.00
2022-08-11T12:57:51.149Z,29.80
2022-08-11T13:00:39.502Z,29.80
2022-08-11T13:03:29.014Z,29.90
2022-08-11T13:06:02.731Z,29.90
2022-08-11T13:08:39.298Z,29.80
2022-08-11T13:11:56.554Z,29.80
2022-08-11T13:14:18.717Z,29.80
2022-08-11T13:17:06.292Z,29.70
2022-08-11T13:19:36.247Z,29.80
2022-08-11T13:22:07.464Z,29.60
2022-08-11T13:24:37.901Z,29.60
2022-08-11T13:27:08.932Z,29.70
2022-08-11T13:29:40.376Z,29.70
2022-08-11T13:32:11.369Z,29.70
2022-08-11T13:34:43.182Z,29.60
2022-08-11T13:37:14.537Z,29.70
2022-08-11T13:39:47.310Z,29.60
2022-08-11T13:42:21.797Z,29.60
2022-08-11T13:44:51.130Z,29.80
2022-08-11T13:47:23.599Z,29.80
2022-08-11T13:49:53.976Z,29.90
2022-08-11T13:52:23.689Z,30.00
2022-08-11T13:54:53.693Z,29.90
2022-08-11T13:58:06.662Z,29.80
2022-08-11T14:00:27.601Z,29.80
2022-08-11T14:02:58.920Z,29.90
2022-08-11T14:05:30.756Z,29.80
2022-08-11T14:08:04.030Z,29.80
2022-08-11T14:10:38.031Z,29.70
2022-08-11T14:13:41.684Z,29.70
2022-08-11T14:16:22.514Z,29.80
2022-08-11T14:18:56.031Z,29.90
2022-08-11T14:21:43.448Z,29.90
2022-08-11T14:24:13.807Z,30.00
2022-08-11T14:26:44.258Z,30.00
2022-08-11T14:31:50.327Z,30.00
2022-08-11T14:34:22.238Z,29.90
2022-08-11T14:36:54.947Z,29.90
2022-08-11T14:39:27.030Z,29.90
2022-08-11T14:42:17.448Z,29.90
2022-08-11T14:45:08.096Z,29.80
2022-08-11T14:47:39.450Z,29.80
2022-08-11T14:50:14.960Z,29.80
2022-08-11T14:52:54.978Z,29.80
2022-08-11T14:55:43.505Z,29.80
2022-08-11T14:58:18.257Z,30.00
2022-08-11T15:00:53.082Z,29.90
2022-08-11T15:03:28.108Z,30.00
2022-08-11T15:06:02.266Z,30.00
2022-08-11T15:08:51.465Z,30.00
2022-08-11T15:11:41.634Z,29.90
2022-08-11T15:14:12.824Z,29.90
2022-08-11T15:17:03.613Z,29.90
2022-08-11T15:19:40.173Z,29.90
2022-08-11T15:22:29.169Z,30.00
2022-08-11T15:25:00.312Z,30.00
2022-08-11T15:27:50.068Z,30.10
2022-08-11T15:30:42.311Z,30.10
2022-08-11T15:33:33.630Z,30.10
2022-08-11T15:36:24.984Z,30.10
2022-08-11T15:38:59.549Z,30.10
2022-08-11T15:41:58.830Z,30.10
2022-08-11T15:45:08.850Z,30.20
2022-08-11T15:47:43.974Z,30.20
2022-08-11T15:50:20.212Z,30.20
2022-08-11T15:52:58.332Z,30.10
2022-08-11T15:55:32.266Z,30.10
2022-08-11T15:58:23.914Z,30.10
2022-08-11T16:01:12.810Z,30.10
2022-08-11T16:04:09.006Z,30.10
2022-08-11T16:07:01.596Z,30.10
2022-08-11T16:09:47.005Z,30.10
2022-08-11T16:12:21.058Z,30.10
2022-08-11T16:15:13.609Z,29.90
2022-08-11T16:17:48.411Z,29.90
2022-08-11T16:20:22.677Z,29.80
2022-08-11T16:23:02.188Z,29.80
2022-08-11T16:27:02.536Z,29.80
2022-08-11T16:28:26.496Z,29.80
2022-08-11T16:30:57.483Z,29.70
2022-08-11T16:33:50.158Z,29.80
2022-08-11T16:36:35.658Z,29.70
2022-08-11T16:39:08.046Z,29.70
2022-08-11T16:41:58.633Z,29.70
2022-08-11T16:44:46.998Z,29.70
2022-08-11T16:48:03.414Z,29.80
2022-08-11T16:50:11.047Z,29.70
2022-08-11T16:52:40.275Z,29.60
2022-08-11T16:55:11.737Z,29.60
2022-08-11T16:58:18.899Z,29.50
2022-08-11T17:00:51.175Z,29.40
2022-08-11T17:03:38.408Z,29.40
2022-08-11T17:06:26.711Z,29.40
2022-08-11T17:09:13.887Z,29.40
2022-08-11T17:12:06.933Z,29.30
2022-08-11T17:14:41.752Z,29.30
2022-08-11T17:17:16.876Z,29.40
2022-08-11T17:20:39.649Z,29.50
2022-08-11T17:22:59.748Z,29.50
2022-08-11T17:25:32.200Z,29.30
2022-08-11T17:28:24.680Z,29.30
2022-08-11T17:31:19.984Z,29.20
2022-08-11T17:34:10.959Z,29.20
2022-08-11T17:36:45.724Z,29.30
2022-08-11T17:39:17.093Z,29.20
2022-08-11T17:42:04.332Z,29.20
2022-08-11T17:44:54.122Z,29.20
2022-08-11T17:47:43.689Z,29.10
2022-08-11T17:50:16.951Z,29.10
2022-08-11T17:53:06.860Z,29.10
2022-08-11T17:55:57.974Z,29.10
2022-08-11T17:58:46.838Z,29.00
2022-08-11T18:01:19.652Z,28.90
2022-08-11T18:03:53.249Z,28.90
2022-08-11T18:06:34.881Z,28.90
2022-08-11T18:09:27.405Z,28.90
2022-08-11T18:12:15.093Z,28.90
2022-08-11T18:15:07.277Z,28.90
2022-08-11T18:17:56.375Z,28.90
2022-08-11T18:20:44.018Z,28.80
2022-08-11T18:23:46.924Z,28.70
2022-08-11T18:26:39.739Z,28.60
2022-08-11T18:29:27.419Z,28.50
2022-08-11T18:32:20.878Z,28.50
2022-08-11T18:35:13.142Z,28.30
2022-08-11T18:38:08.853Z,28.30
2022-08-11T18:40:56.452Z,28.30
2022-08-11T18:43:46.041Z,28.20
2022-08-11T18:46:36.984Z,28.10
2022-08-11T18:50:02.619Z,28.10
2022-08-11T18:52:41.195Z,28.10
2022-08-11T18:55:32.742Z,28.00
2022-08-11T18:58:24.915Z,28.00
2022-08-11T19:01:15.776Z,28.00
2022-08-11T19:04:11.120Z,27.90
2022-08-11T19:07:00.097Z,27.90
2022-08-11T19:09:50.949Z,27.80
2022-08-11T19:12:40.822Z,27.70
2022-08-11T19:15:28.802Z,27.70
2022-08-11T19:18:18.091Z,27.60
2022-08-11T19:21:05.658Z,27.50
2022-08-11T19:23:55.230Z,27.50
2022-08-11T19:26:43.651Z,27.40
2022-08-11T19:30:07.123Z,27.40
2022-08-11T19:32:39.548Z,27.30
2022-08-11T19:35:27.473Z,27.30
2022-08-11T19:38:15.591Z,27.20
2022-08-11T19:41:03.298Z,27.10
2022-08-11T19:43:52.734Z,27.00
2022-08-11T19:46:42.274Z,26.90
2022-08-11T19:49:31.166Z,26.60
2022-08-11T19:52:18.247Z,26.50
2022-08-11T19:55:05.566Z,26.30
2022-08-11T19:57:55.588Z,26.10
2022-08-11T20:00:44.270Z,26.00
2022-08-11T20:03:31.873Z,26.10
2022-08-11T20:06:22.291Z,26.10
2022-08-11T20:09:13.258Z,26.10
2022-08-11T20:12:03.869Z,26.10
2022-08-11T20:14:54.705Z,26.10
2022-08-11T20:17:48.223Z,26.00
2022-08-11T20:20:36.226Z,26.00
2022-08-11T20:23:27.674Z,25.90
2022-08-11T20:26:32.785Z,25.90
2022-08-11T20:29:20.568Z,25.70
2022-08-11T20:32:09.673Z,25.60
2022-08-11T20:34:59.290Z,25.50
2022-08-11T20:37:51.253Z,25.40
2022-08-11T20:40:43.119Z,25.30
2022-08-11T20:44:08.454Z,25.20
2022-08-11T20:46:42.327Z,25.20
2022-08-11T20:49:44.353Z,25.10
2022-08-11T20:52:40.382Z,25.00
2022-08-11T20:55:51.810Z,24.90
2022-08-11T21:01:52.073Z,24.70
2022-08-11T21:04:54.910Z,24.60
2022-08-11T21:07:55.264Z,24.60
2022-08-11T21:13:59.008Z,24.40
2022-08-11T21:16:51.283Z,24.30
2022-08-11T21:20:01.200Z,24.20
2022-08-11T21:22:59.633Z,24.10
2022-08-11T21:25:59.334Z,24.10
2022-08-11T21:28:50.071Z,24.10
2022-08-11T21:31:38.820Z,24.00
2022-08-11T21:34:29.825Z,23.80
2022-08-11T21:37:19.459Z,23.80
2022-08-11T21:40:12.470Z,23.70
2022-08-11T21:43:04.345Z,23.60
2022-08-11T21:45:53.089Z,23.50
2022-08-11T21:48:42.731Z,23.50
2022-08-11T21:51:29.523Z,23.50
2022-08-11T21:54:19.503Z,23.40
2022-08-11T21:57:09.009Z,23.30
2022-08-11T22:00:03.861Z,23.30
2022-08-11T22:02:59.392Z,23.20
2022-08-11T22:05:47.834Z,23.20
2022-08-11T22:08:35.425Z,23.20
2022-08-11T22:11:31.950Z,23.20
2022-08-11T22:14:24.719Z,23.00
2022-08-11T22:17:11.527Z,22.90
2022-08-11T22:20:00.628Z,22.70
2022-08-11T22:22:52.752Z,22.70
2022-08-11T22:25:51.292Z,22.80
2022-08-11T22:28:43.480Z,22.80
2022-08-11T22:31:32.949Z,22.90
2022-08-11T22:34:20.238Z,22.80
2022-08-11T22:37:08.315Z,22.90
2022-08-11T22:40:01.900Z,22.90
2022-08-11T22:42:50.370Z,22.90
2022-08-11T22:45:40.123Z,22.80
2022-08-11T22:48:29.708Z,22.70
2022-08-11T22:51:18.100Z,22.70
2022-08-11T22:54:09.607Z,22.70
2022-08-11T22:56:57.392Z,22.60
2022-08-11T22:59:44.845Z,22.40
2022-08-11T23:02:35.021Z,22.40
2022-08-11T23:05:24.993Z,22.40
2022-08-11T23:08:12.087Z,22.40
2022-08-11T23:10:59.115Z,22.40
2022-08-11T23:13:49.090Z,22.30
2022-08-11T23:16:37.462Z,22.20
2022-08-11T23:20:07.151Z,22.20
2022-08-11T23:22:37.190Z,22.20
2022-08-11T23:25:37.305Z,22.30
2022-08-11T23:28:25.353Z,22.30
2022-08-11T23:31:15.887Z,22.30
2022-08-11T23:34:09.164Z,22.20
2022-08-11T23:37:15.810Z,22.00
2022-08-11T23:40:03.697Z,22.00
2022-08-11T23:42:55.906Z,21.90
2022-08-11T23:45:46.820Z,21.90
2022-08-11T23:48:34.871Z,21.90
2022-08-11T23:51:22.191Z,21.80
2022-08-11T23:54:09.767Z,21.90
2022-08-11T23:56:57.636Z,21.90
2022-08-11T23:59:44.316Z,21.90
